sensor_id;sensor_type;location;lat;lon;timestamp;P1;durP1;ratioP1;P2;durP2;ratioP2
32329;SDS011;18807;52.434;13.238;2022-11-03T00:01:51;17.90;;;9.88;;
32329;SDS011;18807;52.434;13.238;2022-11-03T00:09:26;9.03;;;7.30;;
32329;SDS011;18807;52.434;13.238;2022-11-03T00:17:00;12.75;;;8.40;;
32329;SDS011;18807;52.434;13.238;2022-11-03T00:24:35;12.07;;;8.02;;
32329;SDS011;18807;52.434;13.238;2022-11-03T00:32:09;12.23;;;8.10;;
32329;SDS011;18807;52.434;13.238;2022-11-03T00:39:44;16.55;;;8.80;;
32329;SDS011;18807;52.434;13.238;2022-11-03T00:47:18;10.73;;;7.60;;
32329;SDS011;18807;52.434;13.238;2022-11-03T00:54:56;13.63;;;7.43;;
32329;SDS011;18807;52.434;13.238;2022-11-03T01:02:30;12.73;;;7.95;;
32329;SDS011;18807;52.434;13.238;2022-11-03T01:10:06;9.37;;;6.90;;
32329;SDS011;18807;52.434;13.238;2022-11-03T01:17:40;18.65;;;9.02;;
32329;SDS011;18807;52.434;13.238;2022-11-03T01:25:15;19.40;;;10.48;;
32329;SDS011;18807;52.434;13.238;2022-11-03T01:32:49;11.57;;;7.10;;
32329;SDS011;18807;52.434;13.238;2022-11-03T01:40:25;12.17;;;7.73;;
32329;SDS011;18807;52.434;13.238;2022-11-03T01:47:58;12.07;;;7.10;;
32329;SDS011;18807;52.434;13.238;2022-11-03T01:55:34;9.83;;;6.47;;
32329;SDS011;18807;52.434;13.238;2022-11-03T02:03:11;10.80;;;6.82;;
32329;SDS011;18807;52.434;13.238;2022-11-03T02:18:21;10.25;;;6.70;;
32329;SDS011;18807;52.434;13.238;2022-11-03T02:26:00;13.32;;;6.60;;
32329;SDS011;18807;52.434;13.238;2022-11-03T02:41:19;12.03;;;6.27;;
32329;SDS011;18807;52.434;13.238;2022-11-03T02:48:55;8.35;;;4.88;;
32329;SDS011;18807;52.434;13.238;2022-11-03T02:56:31;7.90;;;4.70;;
32329;SDS011;18807;52.434;13.238;2022-11-03T03:04:11;6.68;;;3.72;;
32329;SDS011;18807;52.434;13.238;2022-11-03T03:11:51;5.50;;;4.00;;
32329;SDS011;18807;52.434;13.238;2022-11-03T03:19:30;8.40;;;3.90;;
32329;SDS011;18807;52.434;13.238;2022-11-03T03:27:17;4.85;;;3.53;;
32329;SDS011;18807;52.434;13.238;2022-11-03T03:34:56;6.43;;;3.40;;
32329;SDS011;18807;52.434;13.238;2022-11-03T03:42:35;4.13;;;3.40;;
32329;SDS011;18807;52.434;13.238;2022-11-03T03:50:10;6.32;;;3.63;;
32329;SDS011;18807;52.434;13.238;2022-11-03T03:57:46;5.20;;;3.25;;
32329;SDS011;18807;52.434;13.238;2022-11-03T04:05:20;6.70;;;3.10;;
32329;SDS011;18807;52.434;13.238;2022-11-03T04:12:55;6.67;;;3.60;;
32329;SDS011;18807;52.434;13.238;2022-11-03T04:20:43;7.15;;;3.20;;
32329;SDS011;18807;52.434;13.238;2022-11-03T04:28:36;5.70;;;3.08;;
32329;SDS011;18807;52.434;13.238;2022-11-03T04:36:10;6.15;;;2.90;;
32329;SDS011;18807;52.434;13.238;2022-11-03T04:43:51;6.15;;;3.00;;
32329;SDS011;18807;52.434;13.238;2022-11-03T04:51:26;7.60;;;2.97;;
32329;SDS011;18807;52.434;13.238;2022-11-03T04:59:07;3.58;;;2.60;;
32329;SDS011;18807;52.434;13.238;2022-11-03T05:06:46;3.67;;;2.80;;
32329;SDS011;18807;52.434;13.238;2022-11-03T05:14:24;3.83;;;2.97;;
32329;SDS011;18807;52.434;13.238;2022-11-03T05:22:01;7.95;;;3.25;;
32329;SDS011;18807;52.434;13.238;2022-11-03T05:29:38;5.88;;;3.30;;
32329;SDS011;18807;52.434;13.238;2022-11-03T05:37:19;9.30;;;2.70;;
32329;SDS011;18807;52.434;13.238;2022-11-03T05:45:00;4.50;;;2.65;;
32329;SDS011;18807;52.434;13.238;2022-11-03T05:52:35;5.07;;;3.15;;
32329;SDS011;18807;52.434;13.238;2022-11-03T06:00:20;4.47;;;2.85;;
32329;SDS011;18807;52.434;13.238;2022-11-03T06:08:02;6.15;;;3.20;;
32329;SDS011;18807;52.434;13.238;2022-11-03T06:15:47;5.55;;;3.65;;
32329;SDS011;18807;52.434;13.238;2022-11-03T06:23:25;6.93;;;3.88;;
32329;SDS011;18807;52.434;13.238;2022-11-03T06:31:00;6.03;;;3.67;;
32329;SDS011;18807;52.434;13.238;2022-11-03T06:38:34;6.38;;;3.47;;
32329;SDS011;18807;52.434;13.238;2022-11-03T06:46:13;8.40;;;4.38;;
32329;SDS011;18807;52.434;13.238;2022-11-03T06:53:51;6.80;;;3.80;;
32329;SDS011;18807;52.434;13.238;2022-11-03T07:01:29;6.25;;;3.60;;
32329;SDS011;18807;52.434;13.238;2022-11-03T07:09:05;6.95;;;4.47;;
32329;SDS011;18807;52.434;13.238;2022-11-03T07:16:45;7.82;;;5.38;;
32329;SDS011;18807;52.434;13.238;2022-11-03T07:24:23;9.80;;;6.68;;
32329;SDS011;18807;52.434;13.238;2022-11-03T07:32:00;13.77;;;7.25;;
32329;SDS011;18807;52.434;13.238;2022-11-03T07:39:35;11.23;;;7.18;;
32329;SDS011;18807;52.434;13.238;2022-11-03T07:47:11;9.55;;;6.07;;
32329;SDS011;18807;52.434;13.238;2022-11-03T07:54:46;10.57;;;6.03;;
32329;SDS011;18807;52.434;13.238;2022-11-03T08:02:25;14.03;;;6.80;;
32329;SDS011;18807;52.434;13.238;2022-11-03T08:10:04;12.60;;;5.80;;
32329;SDS011;18807;52.434;13.238;2022-11-03T08:17:40;11.07;;;5.88;;
32329;SDS011;18807;52.434;13.238;2022-11-03T08:25:14;12.73;;;5.68;;
32329;SDS011;18807;52.434;13.238;2022-11-03T08:32:49;9.53;;;5.40;;
32329;SDS011;18807;52.434;13.238;2022-11-03T08:40:23;9.73;;;5.53;;
32329;SDS011;18807;52.434;13.238;2022-11-03T08:47:59;15.10;;;5.23;;
32329;SDS011;18807;52.434;13.238;2022-11-03T09:03:07;7.70;;;4.10;;
32329;SDS011;18807;52.434;13.238;2022-11-03T09:10:41;8.73;;;3.85;;
32329;SDS011;18807;52.434;13.238;2022-11-03T09:18:17;6.20;;;3.50;;
32329;SDS011;18807;52.434;13.238;2022-11-03T09:25:50;8.95;;;4.00;;
32329;SDS011;18807;52.434;13.238;2022-11-03T09:33:26;6.25;;;2.80;;
32329;SDS011;18807;52.434;13.238;2022-11-03T09:40:59;7.82;;;2.80;;
32329;SDS011;18807;52.434;13.238;2022-11-03T09:48:52;5.97;;;3.33;;
32329;SDS011;18807;52.434;13.238;2022-11-03T09:56:26;9.15;;;2.58;;
32329;SDS011;18807;52.434;13.238;2022-11-03T10:04:02;7.13;;;2.45;;
32329;SDS011;18807;52.434;13.238;2022-11-03T10:11:36;5.85;;;2.03;;
32329;SDS011;18807;52.434;13.238;2022-11-03T10:19:12;7.27;;;2.43;;
32329;SDS011;18807;52.434;13.238;2022-11-03T10:26:46;7.18;;;2.08;;
32329;SDS011;18807;52.434;13.238;2022-11-03T10:34:24;4.28;;;1.50;;
32329;SDS011;18807;52.434;13.238;2022-11-03T10:41:59;5.13;;;1.77;;
